createdAt,value
2018-06-01T00:00:37.364Z,75.12
2018-06-01T00:01:36.947Z,75.12
2018-06-01T00:02:36.925Z,75.12
2018-06-01T00:03:37.793Z,75.21
2018-06-01T00:04:38.237Z,75.21
2018-06-01T00:05:36.671Z,75.31
2018-06-01T00:06:37.892Z,75.31
2018-06-01T00:07:37.489Z,75.40
2018-06-01T00:08:58.671Z,75.50
2018-06-01T00:09:59.242Z,75.50
2018-06-01T00:10:59.155Z,75.50
2018-06-01T00:11:58.872Z,75.60
2018-06-01T00:12:58.806Z,75.60
2018-06-01T00:13:58.675Z,75.70
2018-06-01T00:14:59.594Z,75.70
2018-06-01T00:15:58.301Z,75.70
2018-06-01T00:16:59.240Z,75.70
2018-06-01T00:17:58.871Z,75.70
2018-06-01T00:18:58.512Z,75.70
2018-06-01T00:19:59.070Z,75.79
2018-06-01T00:21:42.235Z,75.89
2018-06-01T00:22:42.934Z,75.89
2018-06-01T00:23:42.799Z,75.89
2018-06-01T00:25:04.467Z,75.89
2018-06-01T00:26:05.219Z,75.98
2018-06-01T00:27:04.819Z,76.07
2018-06-01T00:28:05.131Z,76.17
2018-06-01T00:29:04.652Z,76.17
2018-06-01T00:30:04.320Z,76.17
2018-06-01T00:31:27.815Z,76.17
2018-06-01T00:32:27.767Z,76.17
2018-06-01T00:33:28.373Z,76.27
2018-06-01T00:34:28.397Z,76.27
2018-06-01T00:35:28.074Z,76.37
2018-06-01T00:36:27.511Z,76.37
2018-06-01T00:37:28.952Z,76.46
2018-06-01T00:38:27.590Z,76.56
2018-06-01T00:39:28.172Z,76.56
2018-06-01T00:40:27.969Z,76.56
2018-06-01T00:41:27.421Z,76.56
2018-06-01T00:42:28.086Z,76.56
2018-06-01T00:43:27.808Z,76.46
2018-06-01T00:44:27.505Z,76.56
2018-06-01T00:45:28.162Z,76.56
2018-06-01T00:46:27.611Z,76.65
2018-06-01T00:47:28.173Z,76.75
2018-06-01T00:48:27.965Z,76.75
2018-06-01T00:49:27.905Z,76.81
2018-06-01T00:50:27.431Z,76.90
2018-06-01T00:51:28.326Z,76.90
2018-06-01T00:52:28.211Z,76.90
2018-06-01T00:53:27.892Z,76.90
2018-06-01T00:54:27.918Z,77.00
2018-06-01T00:55:27.871Z,77.00
2018-06-01T00:56:49.299Z,77.00
2018-06-01T00:57:50.164Z,77.00
2018-06-01T00:59:11.749Z,77.00
2018-06-01T01:00:12.578Z,77.00
2018-06-01T01:01:12.381Z,77.09
2018-06-01T01:02:12.151Z,77.09
2018-06-01T01:03:12.572Z,77.19
2018-06-01T01:04:13.763Z,77.19
2018-06-01T01:05:13.715Z,77.29
2018-06-01T01:06:12.215Z,77.29
2018-06-01T01:07:11.944Z,77.29
2018-06-01T01:08:12.258Z,77.29
2018-06-01T01:09:11.999Z,77.29
2018-06-01T01:10:11.991Z,77.19
2018-06-01T01:11:12.462Z,77.19
2018-06-01T01:12:11.884Z,77.29
2018-06-01T01:13:11.814Z,77.29
2018-06-01T01:14:11.533Z,77.29
2018-06-01T01:15:13.575Z,77.29
2018-06-01T01:16:12.021Z,77.38
2018-06-01T01:17:11.983Z,77.38
2018-06-01T01:18:33.562Z,77.38
2018-06-01T01:19:56.116Z,77.38
2018-06-01T01:20:57.022Z,77.48
2018-06-01T01:21:56.934Z,77.48
2018-06-01T01:22:56.675Z,77.48
2018-06-01T01:23:56.528Z,77.48
2018-06-01T01:24:55.966Z,77.58
2018-06-01T01:25:56.761Z,77.58
2018-06-01T01:26:56.614Z,77.58
2018-06-01T01:27:56.499Z,77.58
2018-06-01T01:28:55.981Z,77.58
2018-06-01T01:29:56.683Z,77.67
2018-06-01T01:30:56.338Z,77.67
2018-06-01T01:31:56.012Z,77.76
2018-06-01T01:32:57.127Z,77.76
2018-06-01T01:33:57.188Z,77.86
2018-06-01T01:34:56.808Z,77.95
2018-06-01T01:35:56.297Z,77.95
2018-06-01T01:36:56.678Z,78.05
2018-06-01T01:37:56.036Z,78.15
2018-06-01T01:38:56.792Z,78.15
2018-06-01T01:39:56.671Z,78.15
2018-06-01T01:40:56.218Z,78.15
2018-06-01T01:41:56.233Z,78.15
2018-06-01T01:42:56.052Z,78.15
2018-06-01T01:43:56.690Z,78.25
2018-06-01T01:44:56.469Z,78.25
2018-06-01T01:45:56.454Z,78.25
2018-06-01T01:46:55.882Z,78.25
2018-06-01T01:47:56.879Z,78.25
2018-06-01T01:48:56.479Z,78.25
2018-06-01T01:49:56.051Z,78.34
2018-06-01T01:50:56.793Z,78.34
2018-06-01T01:51:56.833Z,78.34
2018-06-01T01:52:56.773Z,78.34
2018-06-01T01:53:56.745Z,78.44
2018-06-01T01:54:56.475Z,78.44
2018-06-01T01:55:56.456Z,78.44
2018-06-01T01:56:56.937Z,78.44
2018-06-01T01:57:56.410Z,78.44
2018-06-01T01:58:56.065Z,78.44
2018-06-01T01:59:56.782Z,78.44
2018-06-01T02:00:56.451Z,78.44
2018-06-01T02:01:56.458Z,78.44
2018-06-01T02:02:56.221Z,78.44
2018-06-01T02:03:57.018Z,78.34
2018-06-01T02:04:56.819Z,78.34
2018-06-01T02:06:18.256Z,78.25
2018-06-01T02:07:19.228Z,78.34
2018-06-01T02:08:19.189Z,78.34
2018-06-01T02:09:18.807Z,78.34
2018-06-01T02:10:18.557Z,78.34
2018-06-01T02:11:18.856Z,78.34
2018-06-01T02:12:18.881Z,78.34
2018-06-01T02:13:18.335Z,78.25
2018-06-01T02:15:03.284Z,78.15
2018-06-01T02:16:03.332Z,78.19
2018-06-01T02:17:02.896Z,78.19
2018-06-01T02:18:03.653Z,78.19
2018-06-01T02:19:03.230Z,78.19
2018-06-01T02:20:04.055Z,78.19
2018-06-01T02:21:25.429Z,78.19
2018-06-01T02:22:26.277Z,78.19
2018-06-01T02:23:26.125Z,78.19
2018-06-01T02:24:25.889Z,78.19
2018-06-01T02:25:25.656Z,78.09
2018-06-01T02:26:25.356Z,78.09
2018-06-01T02:27:26.288Z,78.09
2018-06-01T02:28:26.231Z,78.09
2018-06-01T02:29:26.027Z,78.09
2018-06-01T02:30:25.826Z,78.09
2018-06-01T02:31:25.561Z,78.00
2018-06-01T02:32:25.342Z,78.00
2018-06-01T03:53:38.100Z,79.44
2018-06-01T03:54:38.914Z,79.44
2018-06-01T03:55:38.665Z,79.44
2018-06-01T03:57:01.529Z,79.53
2018-06-01T03:58:01.675Z,79.53
2018-06-01T03:59:01.495Z,79.53
2018-06-01T04:00:01.593Z,79.53
2018-06-01T04:01:01.622Z,79.53
2018-06-01T04:02:01.492Z,79.53
2018-06-01T04:03:01.694Z,79.53
2018-06-01T04:04:01.287Z,79.53
2018-06-01T04:05:01.488Z,79.63
2018-06-01T04:06:01.331Z,79.63
2018-06-01T04:07:02.417Z,79.63
2018-06-01T04:08:01.571Z,79.63
2018-06-01T04:09:01.465Z,79.63
2018-06-01T04:10:14.757Z,79.72
2018-06-01T04:11:02.065Z,79.72
2018-06-01T04:12:01.663Z,79.72
2018-06-01T04:13:01.303Z,79.63
2018-06-01T04:14:02.082Z,79.63
2018-06-01T04:15:02.375Z,79.63
2018-06-01T04:16:01.259Z,79.63
2018-06-01T04:17:02.350Z,79.72
2018-06-01T04:18:02.211Z,79.82
2018-06-01T04:19:02.253Z,79.91
2018-06-01T04:20:02.200Z,80.11
2018-06-01T04:21:02.098Z,80.20
2018-06-01T04:22:02.207Z,80.24
2018-06-01T04:23:02.211Z,80.24
2018-06-01T04:24:02.362Z,80.15
2018-06-01T04:25:02.206Z,80.15
2018-06-01T04:26:02.204Z,80.15
2018-06-01T04:27:02.467Z,80.15
2018-06-01T04:28:01.374Z,80.15
2018-06-01T04:29:23.215Z,80.15
2018-06-01T04:30:23.167Z,80.15
2018-06-01T04:31:24.179Z,80.09
2018-06-01T04:32:22.957Z,80.09
2018-06-01T04:33:23.737Z,80.09
2018-06-01T04:34:23.694Z,80.09
2018-06-01T04:35:23.594Z,80.09
2018-06-01T04:36:23.667Z,80.19
2018-06-01T04:37:23.713Z,80.28
2018-06-01T04:38:23.781Z,80.28
2018-06-01T04:39:23.997Z,80.47
2018-06-01T04:40:24.217Z,80.66
2018-06-01T04:41:23.265Z,80.66
2018-06-01T04:42:24.459Z,80.76
2018-06-01T04:43:23.445Z,80.90
2018-06-01T04:44:23.549Z,80.90
2018-06-01T04:45:23.556Z,80.99
2018-06-01T04:46:23.742Z,81.09
2018-06-01T04:47:23.916Z,81.19
2018-06-01T04:48:23.891Z,81.19
2018-06-01T04:49:23.891Z,81.28
2018-06-01T04:50:24.769Z,81.38
2018-06-01T04:51:24.015Z,81.57
2018-06-01T04:52:24.189Z,81.57
2018-06-01T04:53:24.199Z,81.67
2018-06-01T04:54:23.729Z,81.76
2018-06-01T04:55:24.485Z,81.90
2018-06-01T04:56:23.708Z,82.19
2018-06-01T04:57:28.198Z,82.48
2018-06-01T04:58:23.464Z,82.67
2018-06-01T04:59:24.232Z,82.76
2018-06-01T05:00:23.417Z,82.96
2018-06-01T05:01:24.527Z,82.96
2018-06-01T05:02:24.126Z,83.06
2018-06-01T05:03:26.658Z,83.34
2018-06-01T05:04:26.016Z,83.83
2018-06-01T05:05:23.486Z,84.50
2018-06-01T05:06:23.456Z,84.78
2018-06-01T05:07:23.460Z,85.07
2018-06-01T05:08:24.395Z,86.13
2018-06-01T05:09:23.734Z,86.04
2018-06-01T05:10:25.530Z,85.78
2018-06-01T05:11:57.045Z,85.78
2018-06-01T05:12:58.352Z,86.56
2018-06-01T05:13:58.005Z,86.56
2018-06-01T05:14:58.129Z,86.18
2018-06-01T05:15:57.421Z,86.36
2018-06-01T05:16:57.304Z,86.36
2018-06-01T05:17:57.881Z,85.93
2018-06-01T05:18:57.885Z,85.64
2018-06-01T05:19:57.748Z,86.79
2018-06-01T05:20:57.525Z,87.95
2018-06-01T05:21:57.541Z,87.37
2018-06-01T05:22:57.602Z,88.24
2018-06-01T05:23:57.571Z,90.06
2018-06-01T05:24:57.447Z,89.92
2018-06-01T05:25:57.781Z,89.34
2018-06-01T05:26:57.693Z,89.82
2018-06-01T05:27:58.638Z,90.06
2018-06-01T05:28:59.208Z,92.66
2018-06-01T05:30:20.415Z,97.52
2018-06-01T05:31:25.337Z,93.52
2018-06-01T05:32:20.410Z,94.20
2018-06-01T05:33:20.724Z,92.85
2018-06-01T05:34:21.032Z,92.56
2018-06-01T05:35:20.770Z,94.06
2018-06-01T05:36:43.023Z,94.82
2018-06-01T05:37:43.124Z,95.50
2018-06-01T05:38:42.923Z,94.15
2018-06-01T05:39:42.643Z,93.29
2018-06-01T05:40:42.566Z,93.87
2018-06-01T05:41:43.278Z,93.29
2018-06-01T05:43:26.975Z,93.96
2018-06-01T05:44:27.910Z,93.77
2018-06-01T05:45:27.102Z,94.54
2018-06-01T05:46:26.946Z,95.50
2018-06-01T05:47:26.863Z,95.31
2018-06-01T05:48:29.004Z,93.77
2018-06-01T05:49:27.901Z,93.87
2018-06-01T05:50:27.236Z,94.82
2018-06-01T05:51:27.314Z,92.66
2018-06-01T05:52:26.397Z,91.12
2018-06-01T05:53:26.736Z,92.41
2018-06-01T05:54:49.150Z,90.39
2018-06-01T05:56:02.220Z,91.50
2018-06-01T05:57:25.946Z,92.85
2018-06-01T05:58:26.330Z,93.37
2018-06-01T05:59:26.567Z,94.15
2018-06-01T06:00:26.757Z,97.38
2018-06-01T06:01:26.438Z,97.09
2018-06-01T06:02:26.676Z,97.04
2018-06-01T06:03:26.740Z,98.39
2018-06-01T06:04:25.976Z,99.99
2018-06-01T06:05:25.807Z,99.99
2018-06-01T06:06:25.777Z,98.73
2018-06-01T06:07:26.667Z,99.69
2018-06-01T06:08:26.711Z,99.99
2018-06-01T06:09:25.714Z,99.99
2018-06-01T06:10:26.406Z,99.99
2018-06-01T06:11:26.058Z,99.99
2018-06-01T06:12:26.152Z,99.99
2018-06-01T06:13:26.230Z,99.99
2018-06-01T06:14:28.687Z,98.63
2018-06-01T06:15:26.608Z,99.99
2018-06-01T06:16:47.812Z,99.99
2018-06-01T06:17:48.504Z,99.55
2018-06-01T06:18:48.339Z,99.36
2018-06-01T06:19:48.330Z,99.16
2018-06-01T06:20:48.930Z,99.99
2018-06-01T06:21:47.737Z,99.99
2018-06-01T06:22:48.774Z,98.10
2018-06-01T06:23:48.563Z,99.26
2018-06-01T06:24:49.225Z,97.81
2018-06-01T06:26:31.379Z,98.44
2018-06-01T06:27:31.276Z,98.15
2018-06-01T06:28:32.298Z,99.99
2018-06-01T06:29:53.032Z,97.28
2018-06-01T06:30:55.328Z,97.08
2018-06-01T06:31:53.504Z,97.47
2018-06-01T06:32:53.175Z,96.36
2018-06-01T06:33:53.854Z,97.03
2018-06-01T06:35:18.620Z,95.49
2018-06-01T06:36:40.304Z,96.31
2018-06-01T06:37:41.399Z,96.89
2018-06-01T06:38:40.456Z,95.73
2018-06-01T06:39:40.816Z,96.75
2018-06-01T06:40:41.450Z,96.65
2018-06-01T06:42:04.261Z,95.00
2018-06-01T06:43:25.823Z,95.34
2018-06-01T06:44:26.678Z,94.27
2018-06-01T06:45:26.714Z,96.31
2018-06-01T06:46:26.078Z,92.33
2018-06-01T06:47:48.277Z,96.94
2018-06-01T06:48:47.996Z,93.05
2018-06-01T06:50:11.226Z,92.86
2018-06-01T06:51:11.006Z,94.12
2018-06-01T06:52:33.798Z,93.93
2018-06-01T06:54:16.173Z,93.44
2018-06-01T06:55:16.754Z,93.35
2018-06-01T06:56:40.356Z,92.91
2018-06-01T06:57:41.017Z,92.08
2018-06-01T06:58:41.239Z,94.90
2018-06-01T06:59:41.265Z,91.50
2018-06-01T07:00:40.331Z,92.67
2018-06-01T07:01:41.158Z,92.57
2018-06-01T07:02:40.765Z,93.25
2018-06-01T07:03:41.115Z,91.79
2018-06-01T07:04:41.057Z,93.54
2018-06-01T07:05:41.491Z,93.30
2018-06-01T07:06:41.152Z,92.52
2018-06-01T07:07:41.153Z,92.91
2018-06-01T07:08:39.974Z,92.57
2018-06-01T07:10:02.296Z,93.25
2018-06-01T07:11:03.203Z,91.99
2018-06-01T07:12:02.950Z,91.99
2018-06-01T07:13:04.256Z,92.47
2018-06-01T07:14:02.930Z,93.15
2018-06-01T07:15:04.334Z,91.70
2018-06-01T07:16:03.498Z,92.28
2018-06-01T07:17:04.680Z,92.28
2018-06-01T07:18:03.320Z,93.01
2018-06-01T07:19:31.407Z,91.70
2018-06-01T07:20:49.110Z,91.35
2018-06-01T07:22:11.602Z,90.97
2018-06-01T07:23:15.497Z,92.13
2018-06-01T07:24:34.422Z,91.45
2018-06-01T07:25:35.348Z,91.84
2018-06-01T07:26:34.721Z,91.40
2018-06-01T07:27:35.655Z,91.50
2018-06-01T07:28:57.101Z,91.98
2018-06-01T07:29:58.177Z,92.85
2018-06-01T07:30:57.345Z,91.30
2018-06-01T07:31:57.707Z,91.83
2018-06-01T07:32:58.083Z,91.64
2018-06-01T07:33:58.565Z,91.39
2018-06-01T07:34:57.563Z,91.29
2018-06-01T07:35:57.512Z,90.91
2018-06-01T07:36:57.399Z,90.22
2018-06-01T07:37:58.397Z,90.52
2018-06-01T07:38:57.371Z,90.85
2018-06-01T07:39:57.282Z,90.61
2018-06-01T07:40:57.516Z,89.04
2018-06-01T07:41:57.671Z,89.58
2018-06-01T07:43:20.181Z,89.72
2018-06-01T07:44:20.179Z,88.16
2018-06-01T07:45:20.957Z,86.70
2018-06-01T07:46:19.716Z,87.04
2018-06-01T07:47:19.578Z,87.81
2018-06-01T07:48:40.665Z,87.85
2018-06-01T07:49:42.166Z,86.93
2018-06-01T07:50:41.229Z,86.87
2018-06-01T07:51:41.523Z,84.63
2018-06-01T07:52:41.372Z,84.57
2018-06-01T07:54:02.752Z,83.79
2018-06-01T07:55:03.867Z,83.11
2018-06-01T07:56:03.637Z,83.14
2018-06-01T07:57:03.701Z,81.77
2018-06-01T07:58:27.475Z,83.77
2018-06-01T07:59:27.449Z,83.09
2018-06-01T08:00:27.976Z,81.13
2018-06-01T08:02:14.157Z,81.17
2018-06-01T08:03:15.223Z,81.37
2018-06-01T08:04:14.248Z,80.43
2018-06-01T08:05:14.469Z,80.91
2018-06-01T08:06:14.151Z,79.25
2018-06-01T08:07:15.082Z,80.13
2018-06-01T08:08:15.883Z,80.04
2018-06-01T08:09:15.450Z,78.77
2018-06-01T08:10:14.506Z,78.51
2018-06-01T08:11:36.125Z,76.84
2018-06-01T08:12:36.373Z,77.96
2018-06-01T08:13:36.373Z,76.59
2018-06-01T08:14:36.353Z,75.81
2018-06-01T08:15:36.461Z,74.63
2018-06-01T08:16:36.776Z,73.26
2018-06-01T08:17:37.000Z,74.92
2018-06-01T08:18:58.169Z,74.53
2018-06-01T08:19:58.269Z,75.02
2018-06-01T08:20:58.427Z,74.49
2018-06-01T08:21:58.725Z,76.57
2018-06-01T08:22:58.694Z,77.03
2018-06-01T08:23:58.662Z,77.38
2018-06-01T08:24:58.337Z,79.10
2018-06-01T08:25:58.165Z,77.59
2018-06-01T08:26:58.536Z,78.92
2018-06-01T08:27:58.518Z,80.15
2018-06-01T08:28:58.437Z,81.32
2018-06-01T08:29:58.619Z,81.71
2018-06-01T08:30:58.751Z,82.10
2018-06-01T08:31:58.732Z,81.23
2018-06-01T08:32:58.843Z,81.09
2018-06-01T08:33:57.918Z,81.87
2018-06-01T08:34:58.637Z,81.15
2018-06-01T08:35:58.329Z,81.79
2018-06-01T08:36:59.338Z,82.86
2018-06-01T08:37:58.305Z,82.37
2018-06-01T08:38:58.332Z,82.43
2018-06-01T08:39:58.127Z,82.37
2018-06-01T08:41:21.645Z,82.37
2018-06-01T08:42:23.345Z,81.87
2018-06-01T08:43:22.328Z,80.74
2018-06-01T08:44:44.118Z,78.73
2018-06-01T08:46:05.806Z,78.71
2018-06-01T08:47:06.823Z,76.56
2018-06-01T08:48:05.907Z,76.66
2018-06-01T08:49:06.316Z,76.62
2018-06-01T08:50:06.029Z,79.02
2018-06-01T08:51:05.896Z,78.89
2018-06-01T08:52:28.404Z,80.56
2018-06-01T08:53:29.257Z,81.34
2018-06-01T08:54:51.370Z,81.23
2018-06-01T08:55:52.449Z,80.39
2018-06-01T08:56:52.518Z,79.24
2018-06-01T08:57:51.426Z,79.72
2018-06-01T08:59:14.034Z,79.86
2018-06-01T09:00:15.135Z,79.12
2018-06-01T09:01:15.101Z,78.32
2018-06-01T09:02:14.143Z,77.87
2018-06-01T09:03:14.893Z,77.42
2018-06-01T09:04:14.894Z,75.37
2018-06-01T09:05:14.709Z,75.17
2018-06-01T09:06:36.557Z,74.68
2018-06-01T09:07:57.971Z,73.60
2018-06-01T09:08:59.585Z,74.64
2018-06-01T09:09:58.348Z,75.43
2018-06-01T09:10:58.355Z,74.29
2018-06-01T09:11:58.374Z,75.72
2018-06-01T09:12:58.660Z,76.95
2018-06-01T09:13:58.937Z,77.05
2018-06-01T09:15:00.172Z,75.45
2018-06-01T09:15:58.081Z,75.84
2018-06-01T09:16:57.921Z,75.54
2018-06-01T09:17:59.876Z,74.83
2018-06-01T09:19:01.065Z,75.67
2018-06-01T09:20:44.176Z,76.31
2018-06-01T09:21:45.432Z,77.73
2018-06-01T09:22:44.294Z,77.40
2018-06-01T09:24:06.022Z,78.92
2018-06-01T09:25:06.975Z,79.22
2018-06-01T09:26:06.027Z,80.38
2018-06-01T09:27:05.861Z,79.80
2018-06-01T09:28:07.156Z,79.66
2018-06-01T09:29:06.294Z,80.05
2018-06-01T09:30:06.493Z,80.05
2018-06-01T09:31:07.094Z,80.54
2018-06-01T09:32:05.999Z,80.44
2018-06-01T09:33:30.172Z,80.93
2018-06-01T09:34:31.094Z,80.58
2018-06-01T09:35:30.995Z,80.62
2018-06-01T09:36:31.601Z,79.97
2018-06-01T09:37:30.659Z,79.63
2018-06-01T09:38:30.413Z,77.81
2018-06-01T09:39:30.557Z,78.11
2018-06-01T09:40:30.309Z,76.70
2018-06-01T09:41:31.269Z,77.68
2018-06-01T09:42:52.711Z,78.12
2018-06-01T09:43:53.747Z,77.89
2018-06-01T09:45:15.373Z,78.25
2018-06-01T09:46:16.429Z,78.53
2018-06-01T09:47:38.110Z,79.28
2018-06-01T09:48:39.109Z,79.90
2018-06-01T09:50:02.733Z,80.48
2018-06-01T09:51:27.552Z,81.75
2018-06-01T09:52:27.703Z,80.48
2018-06-01T09:53:27.451Z,79.18
2018-06-01T09:54:27.765Z,81.02
2018-06-01T09:55:28.146Z,80.35
2018-06-01T09:56:27.380Z,79.76
2018-06-01T09:57:51.421Z,80.15
2018-06-01T09:59:14.586Z,80.02
2018-06-01T10:00:14.411Z,80.50
2018-06-01T10:01:15.438Z,80.11
2018-06-01T10:02:37.627Z,81.57
2018-06-01T10:03:37.542Z,81.86
2018-06-01T10:05:44.539Z,80.79
2018-06-01T10:06:45.662Z,81.41
2018-06-01T10:07:44.759Z,82.20
2018-06-01T10:08:45.959Z,81.69
2018-06-01T10:09:45.013Z,80.43
2018-06-01T10:10:45.017Z,78.71
2018-06-01T10:11:45.104Z,77.87
2018-06-01T10:12:56.019Z,77.72
2018-06-01T10:13:45.036Z,77.56
2018-06-01T10:14:45.227Z,75.64
2018-06-01T10:15:45.370Z,76.23
2018-06-01T10:16:45.392Z,75.12
2018-06-01T10:18:29.143Z,77.26
2018-06-01T10:19:29.119Z,75.74
2018-06-01T10:20:30.355Z,74.74
2018-06-01T10:21:30.124Z,73.54
2018-06-01T10:22:29.598Z,72.24
2018-06-01T10:23:30.083Z,71.53
2018-06-01T10:24:29.731Z,68.43
2018-06-01T10:25:29.865Z,67.19
2018-06-01T10:26:29.716Z,66.83
2018-06-01T10:27:29.464Z,65.19
2018-06-01T10:28:52.339Z,65.22
2018-06-01T10:29:51.901Z,64.83
2018-06-01T10:30:52.493Z,64.17
2018-06-01T10:31:52.030Z,62.56
2018-06-01T10:33:18.175Z,61.11
2018-06-01T10:34:20.672Z,60.03
2018-06-01T10:35:20.580Z,60.06
2018-06-01T10:36:17.512Z,58.48
2018-06-01T10:37:17.625Z,58.16
2018-06-01T10:38:18.787Z,58.85
2018-06-01T10:39:18.013Z,59.47
2018-06-01T10:40:16.933Z,59.70
2018-06-01T10:41:18.023Z,58.64
2018-06-01T10:42:17.044Z,57.71
2018-06-01T10:43:17.325Z,57.42
2018-06-01T10:44:17.563Z,58.64
2018-06-01T10:45:19.113Z,59.63
2018-06-01T10:46:17.161Z,60.39
2018-06-01T10:47:17.287Z,59.84
2018-06-01T10:48:19.534Z,58.53
2018-06-01T10:49:17.544Z,59.28
2018-06-01T10:50:18.664Z,59.48
2018-06-01T10:51:17.683Z,61.25
2018-06-01T10:52:17.934Z,60.14
2018-06-01T10:53:17.927Z,59.92
2018-06-01T10:54:19.345Z,62.41
2018-06-01T10:55:17.940Z,61.50
2018-06-01T10:57:04.020Z,64.28
2018-06-01T10:58:05.023Z,63.36
2018-06-01T10:59:04.617Z,64.37
2018-06-01T11:00:04.493Z,64.28
2018-06-01T11:01:04.846Z,62.87
2018-06-01T11:02:05.051Z,61.74
2018-06-01T11:03:27.971Z,61.64
2018-06-01T11:04:28.039Z,59.57
2018-06-01T11:05:28.660Z,57.90
2018-06-01T11:07:16.828Z,59.88
2018-06-01T11:08:18.615Z,60.24
2018-06-01T11:09:17.588Z,61.63
2018-06-01T11:10:17.666Z,62.90
2018-06-01T11:11:17.669Z,63.56
2018-06-01T11:12:17.555Z,64.61
2018-06-01T11:13:17.760Z,65.00
2018-06-01T11:14:17.738Z,65.65
2018-06-01T11:15:16.949Z,65.59
2018-06-01T11:16:17.056Z,67.94
2018-06-01T11:17:17.197Z,68.55
2018-06-01T11:18:17.998Z,68.55
2018-06-01T11:19:17.729Z,69.01
2018-06-01T11:20:16.943Z,69.07
2018-06-01T11:21:17.139Z,68.88
2018-06-01T11:22:17.406Z,68.55
2018-06-01T11:23:17.626Z,70.08
2018-06-01T11:24:19.240Z,70.14
2018-06-01T11:26:02.723Z,71.57
2018-06-01T11:27:03.654Z,72.22
2018-06-01T11:28:02.442Z,73.29
2018-06-01T11:29:03.507Z,74.23
2018-06-01T11:30:02.394Z,75.79
2018-06-01T11:31:03.211Z,75.79
2018-06-01T11:32:04.405Z,77.11
2018-06-01T11:33:05.328Z,76.01
2018-06-01T11:34:03.440Z,76.68
2018-06-01T11:35:03.359Z,77.62
2018-06-01T11:36:03.192Z,78.79
2018-06-01T11:37:02.933Z,80.11
2018-06-01T11:38:27.180Z,80.02
2018-06-01T11:39:27.332Z,80.85
2018-06-01T11:40:27.211Z,81.63
2018-06-01T11:41:27.039Z,81.63
2018-06-01T11:42:27.395Z,82.27
2018-06-01T11:43:49.156Z,82.62
2018-06-01T11:44:50.081Z,83.88
2018-06-01T11:45:49.845Z,84.52
2018-06-01T11:46:50.196Z,84.57
2018-06-01T11:47:50.068Z,85.25
2018-06-01T11:48:49.828Z,85.25
2018-06-01T11:49:49.642Z,85.30
2018-06-01T11:50:50.601Z,85.02
2018-06-01T11:52:11.774Z,85.94
2018-06-01T11:53:12.235Z,85.46
2018-06-01T11:54:12.335Z,85.13
2018-06-01T11:55:12.432Z,84.79
2018-06-01T11:56:35.642Z,84.41
2018-06-01T11:57:34.667Z,84.56
2018-06-01T11:58:58.937Z,84.13
2018-06-01T11:59:59.177Z,83.94
2018-06-01T12:01:00.085Z,84.03
2018-06-01T12:02:01.291Z,84.19
2018-06-01T12:03:00.379Z,82.93
2018-06-01T12:03:59.152Z,83.51
2018-06-01T12:04:59.088Z,82.64
2018-06-01T12:06:22.908Z,81.63
2018-06-01T12:07:23.903Z,83.27
2018-06-01T12:08:24.237Z,81.63
2018-06-01T12:09:23.601Z,81.98
2018-06-01T12:10:49.150Z,82.46
2018-06-01T12:11:48.057Z,82.26
2018-06-01T12:12:48.922Z,82.46
2018-06-01T12:13:48.749Z,81.98
2018-06-01T12:14:49.221Z,81.78
2018-06-01T12:15:48.377Z,81.68
2018-06-01T12:16:49.965Z,81.78
2018-06-01T12:17:48.095Z,82.36
2018-06-01T12:18:48.519Z,82.65
2018-06-01T12:19:48.576Z,82.98
2018-06-01T12:20:48.652Z,84.05
2018-06-01T12:22:12.849Z,83.56
2018-06-01T12:23:36.002Z,84.82
2018-06-01T12:24:36.927Z,84.91
2018-06-01T12:25:36.257Z,84.37
2018-06-01T12:26:36.449Z,84.47
2018-06-01T12:27:35.620Z,86.02
2018-06-01T12:28:41.423Z,85.73
2018-06-01T12:29:35.660Z,87.27
2018-06-01T12:30:36.464Z,87.47
2018-06-01T12:31:36.086Z,86.51
2018-06-01T12:32:36.188Z,87.23
2018-06-01T12:33:36.745Z,88.96
2018-06-01T12:34:36.480Z,88.57
2018-06-01T12:35:35.540Z,90.32
2018-06-01T12:36:35.669Z,87.95
2018-06-01T12:38:00.792Z,88.71
2018-06-01T12:38:59.280Z,88.81
2018-06-01T12:39:58.165Z,89.49
2018-06-01T12:40:58.348Z,92.73
2018-06-01T12:41:58.332Z,91.28
2018-06-01T12:42:58.250Z,89.25
2018-06-01T12:43:58.184Z,89.68
2018-06-01T12:44:59.227Z,91.22
2018-06-01T12:45:58.297Z,88.85
2018-06-01T12:46:59.322Z,90.11
2018-06-01T12:47:58.384Z,90.34
2018-06-01T12:48:58.427Z,92.43
2018-06-01T12:49:58.571Z,90.00
2018-06-01T12:51:01.402Z,89.55
2018-06-01T12:51:59.132Z,92.27
2018-06-01T12:53:42.047Z,91.83
2018-06-01T12:55:04.470Z,91.68
2018-06-01T12:56:05.995Z,92.17
2018-06-01T12:57:04.421Z,91.10
2018-06-01T12:58:05.042Z,92.02
2018-06-01T13:00:16.189Z,91.09
2018-06-01T13:02:01.810Z,89.48
2018-06-01T13:03:38.742Z,90.34
2018-06-01T13:04:08.227Z,88.72
2018-06-01T13:05:26.138Z,86.30
2018-06-01T13:06:25.992Z,86.73
2018-06-01T13:07:25.952Z,85.55
2018-06-01T13:08:48.929Z,84.86
2018-06-01T13:09:48.699Z,84.47
2018-06-01T13:11:33.248Z,83.24
2018-06-01T13:12:34.326Z,81.62
2018-06-01T13:13:34.291Z,82.56
2018-06-01T13:14:34.536Z,80.93
2018-06-01T13:15:34.834Z,79.17
2018-06-01T13:16:33.958Z,76.54
2018-06-01T13:17:33.753Z,78.06
2018-06-01T13:18:33.888Z,79.59
2018-06-01T13:19:55.814Z,79.49
2018-06-01T13:20:56.339Z,80.80
2018-06-01T13:21:56.346Z,78.03
2018-06-01T13:23:20.068Z,79.59
2018-06-01T13:24:21.175Z,80.57
2018-06-01T13:25:22.451Z,80.52
2018-06-01T13:26:20.702Z,81.40
2018-06-01T13:27:21.688Z,80.62
2018-06-01T13:28:20.402Z,79.32
2018-06-01T13:29:44.159Z,79.96
2018-06-01T13:30:45.130Z,79.43
2018-06-01T13:31:45.744Z,81.69
2018-06-01T13:32:44.731Z,83.93
2018-06-01T13:33:44.483Z,81.26
2018-06-01T13:34:45.219Z,80.35
2018-06-01T13:35:46.107Z,80.54
2018-06-01T13:36:45.304Z,81.61
2018-06-01T13:37:45.068Z,81.12
2018-06-01T13:38:45.506Z,79.43
2018-06-01T13:39:44.535Z,79.82
2018-06-01T13:40:46.180Z,80.21
2018-06-01T13:41:45.241Z,81.82
2018-06-01T13:42:48.169Z,83.32
2018-06-01T13:43:45.943Z,83.81
2018-06-01T13:44:45.090Z,83.51
2018-06-01T13:46:07.958Z,80.15
2018-06-01T13:47:06.907Z,78.59
2018-06-01T13:48:07.255Z,79.57
2018-06-01T13:49:06.881Z,80.25
2018-06-01T13:50:07.247Z,78.92
2018-06-01T13:51:31.952Z,77.95
2018-06-01T13:52:31.818Z,77.56
2018-06-01T13:53:32.162Z,76.78
2018-06-01T13:54:33.432Z,77.99
2018-06-01T13:55:35.014Z,76.63
2018-06-01T13:56:31.713Z,79.30
2018-06-01T13:57:31.518Z,77.54
2018-06-01T13:58:53.505Z,74.17
2018-06-01T13:59:54.583Z,72.71
2018-06-01T14:00:59.623Z,72.45
2018-06-01T14:01:53.527Z,73.07
2018-06-01T14:02:55.459Z,73.50
2018-06-01T14:03:54.800Z,70.96
2018-06-01T14:04:54.518Z,71.55
2018-06-01T14:06:17.278Z,74.32
2018-06-01T14:07:17.602Z,72.07
2018-06-01T14:08:18.256Z,70.70
2018-06-01T14:09:17.272Z,69.76
2018-06-01T14:10:17.565Z,68.49
2018-06-01T14:11:38.230Z,69.37
2018-06-01T14:13:00.835Z,68.62
2018-06-01T14:14:01.854Z,67.38
2018-06-01T14:15:01.630Z,64.77
2018-06-01T14:16:01.402Z,64.61
2018-06-01T14:17:01.578Z,63.43
2018-06-01T14:18:24.673Z,65.45
2018-06-01T14:19:24.530Z,65.65
2018-06-01T14:20:25.577Z,65.98
2018-06-01T14:21:24.627Z,64.15
2018-06-01T14:22:48.267Z,64.28
2018-06-01T14:23:49.058Z,63.43
2018-06-01T14:24:49.356Z,63.65
2018-06-01T14:25:50.541Z,61.79
2018-06-01T14:26:55.111Z,62.08
2018-06-01T14:27:48.917Z,63.98
2018-06-01T14:28:50.473Z,64.08
2018-06-01T14:29:49.079Z,61.20
2018-06-01T14:30:49.396Z,62.41
2018-06-01T14:32:11.484Z,61.57
2018-06-01T14:33:15.199Z,62.69
2018-06-01T14:34:14.166Z,65.10
2018-06-01T14:39:16.366Z,68.13
2018-06-01T14:40:13.647Z,65.00
2018-06-01T14:40:56.245Z,67.25
2018-06-01T14:41:54.322Z,66.20
2018-06-01T14:42:54.627Z,63.40
2018-06-01T14:43:53.559Z,63.04
2018-06-01T14:44:54.267Z,62.35
2018-06-01T14:45:54.486Z,62.29
2018-06-01T14:46:53.658Z,62.88
2018-06-01T14:47:53.738Z,63.66
2018-06-01T14:48:53.784Z,61.34
2018-06-01T14:49:54.616Z,62.15
2018-06-01T14:50:53.974Z,61.96
2018-06-01T14:52:16.312Z,62.18
2018-06-01T14:53:16.030Z,60.61
2018-06-01T14:54:15.717Z,60.91
2018-06-01T14:55:16.623Z,61.30
2018-06-01T14:56:16.941Z,60.05
2018-06-01T14:57:15.918Z,61.63
2018-06-01T14:58:15.813Z,60.38
2018-06-01T14:59:16.208Z,59.30
2018-06-01T15:00:16.134Z,59.23
2018-06-01T15:01:16.251Z,58.74
2018-06-01T15:02:16.291Z,59.52